LTCT

Iğdır

Iğdır, Turkey
TAF LTCT 221340Z 2215/2224 14009KT 9999 SCT035 BKN070 BECMG 2218/2220 CAVOK
Issued Valid From Valid To
Sep-22 @ 13:40 UTC
(an hour ago)
Sep-22 @ 15:00 UTC
(8 minutes ago)
Sep-23 @ 00:00 UTC
(in 9 hours)
to
to
TAF LTCT 221340Z 2215/2224 14009KT 9999 SCT035 BKN070 BECMG 2218/2220 CAVOK
Issued Sep-22 @ 13:40 UTC
(an hour ago)
Valid From Sep-22 @ 15:00 UTC
(8 minutes ago)
Valid To Sep-23 @ 00:00 UTC
(in 9 hours)
-
-